createdAt,value
2022-08-20T04:18:25.595Z,124.00
2022-08-20T04:19:21.385Z,136.00
2022-08-20T04:20:23.778Z,148.00
2022-08-20T04:21:24.748Z,160.00
2022-08-20T04:22:26.160Z,168.00
2022-08-20T04:23:27.109Z,180.00
2022-08-20T04:25:30.136Z,204.00
2022-08-20T04:26:32.390Z,216.00
2022-08-20T04:27:33.545Z,228.00
2022-08-20T04:28:34.974Z,244.00
2022-08-20T04:29:36.150Z,264.00
2022-08-20T04:30:37.343Z,280.00
2022-08-20T04:31:45.517Z,296.00
2022-08-20T04:32:41.128Z,312.00
2022-08-20T04:33:42.081Z,332.00
2022-08-20T04:34:44.207Z,340.00
2022-08-20T04:35:46.021Z,352.00
2022-08-20T04:36:47.123Z,360.00
2022-08-20T04:37:49.413Z,368.00
2022-08-20T04:38:51.568Z,372.00
2022-08-20T04:39:53.844Z,384.00
2022-08-20T04:40:56.281Z,388.00
2022-08-20T04:41:57.550Z,392.00
2022-08-20T04:42:58.565Z,396.00
2022-08-20T04:44:01.915Z,400.00
2022-08-20T04:45:02.160Z,404.00
2022-08-20T04:46:03.342Z,412.00
2022-08-20T04:47:04.418Z,424.00
2022-08-20T04:48:05.582Z,432.00
2022-08-20T04:49:07.709Z,444.00
2022-08-20T04:50:09.373Z,460.00
2022-08-20T04:51:10.713Z,460.00
2022-08-20T04:52:11.783Z,464.00
2022-08-20T04:53:13.113Z,464.00
2022-08-20T04:54:14.366Z,468.00
2022-08-20T04:55:21.591Z,472.00
2022-08-20T04:56:17.387Z,480.00
2022-08-20T04:57:19.513Z,496.00
2022-08-20T04:58:21.635Z,508.00
2022-08-20T04:59:29.673Z,520.00
2022-08-20T05:00:24.801Z,532.00
2022-08-20T05:01:33.085Z,548.00
2022-08-20T05:02:28.268Z,560.00
2022-08-20T05:03:30.379Z,600.00
2022-08-20T05:04:31.551Z,636.00
2022-08-20T05:05:32.512Z,668.00
2022-08-20T05:06:34.632Z,708.00
2022-08-20T05:07:36.779Z,744.00
2022-08-20T05:08:38.913Z,772.00
2022-08-20T05:09:43.753Z,800.00
2022-08-20T05:10:42.952Z,820.00
2022-08-20T05:11:44.683Z,832.00
2022-08-20T05:12:56.842Z,844.00
2022-08-20T05:13:48.180Z,856.00
2022-08-20T05:14:48.387Z,872.00
2022-08-20T05:15:49.977Z,888.00
2022-08-20T05:16:50.947Z,904.00
2022-08-20T05:17:52.064Z,916.00
2022-08-20T05:18:53.146Z,932.00
2022-08-20T05:19:54.747Z,956.00
2022-08-20T05:20:56.860Z,996.00
2022-08-20T05:21:58.972Z,1036.00
2022-08-20T05:23:00.564Z,1080.00
2022-08-20T05:24:01.600Z,1124.00
2022-08-20T05:25:03.731Z,1168.00
2022-08-20T05:26:10.989Z,1216.00
2022-08-20T05:27:06.663Z,1252.00
2022-08-20T05:28:07.829Z,1276.00
2022-08-20T05:29:09.065Z,1304.00
2022-08-20T05:30:13.441Z,1328.00
2022-08-20T05:31:13.558Z,1356.00
2022-08-20T05:32:14.785Z,1380.00
2022-08-20T05:33:15.941Z,1404.00
2022-08-20T05:35:19.811Z,1468.00
2022-08-20T05:37:23.088Z,1556.00
2022-08-20T05:38:25.213Z,1592.00
2022-08-20T05:39:27.329Z,1636.00
2022-08-20T05:40:29.495Z,1672.00
2022-08-20T05:41:30.780Z,1704.00
2022-08-20T05:42:32.949Z,1732.00
2022-08-20T05:43:35.070Z,1760.00
2022-08-20T05:44:37.392Z,1772.00
2022-08-20T05:45:38.350Z,1780.00
2022-08-20T05:46:39.994Z,1784.00
2022-08-20T05:47:42.951Z,1792.00
2022-08-20T05:48:44.048Z,1792.00
2022-08-20T05:49:46.372Z,1792.00
2022-08-20T05:50:47.751Z,1784.00
2022-08-20T05:51:55.947Z,1776.00
2022-08-20T05:52:51.186Z,1772.00
2022-08-20T05:53:59.614Z,1776.00
2022-08-20T05:54:53.798Z,1788.00
2022-08-20T05:55:54.998Z,1800.00
2022-08-20T05:57:03.172Z,1816.00
2022-08-20T05:57:58.624Z,1844.00
2022-08-20T06:00:00.814Z,1900.00
2022-08-20T06:01:02.534Z,1928.00
2022-08-20T06:02:09.788Z,1952.00
2022-08-20T06:03:04.904Z,1980.00
2022-08-20T06:04:07.235Z,2016.00
2022-08-20T06:05:14.484Z,2048.00
2022-08-20T06:06:18.269Z,2088.00
2022-08-20T06:07:12.243Z,2144.00
2022-08-20T06:08:13.206Z,2192.00
2022-08-20T06:09:14.194Z,2244.00
2022-08-20T06:10:15.165Z,2296.00
2022-08-20T06:11:17.307Z,2344.00
2022-08-20T06:12:18.510Z,2400.00
2022-08-20T06:13:20.795Z,2456.00
2022-08-20T06:14:23.115Z,2520.00
2022-08-20T06:15:24.517Z,2568.00
2022-08-20T06:16:32.653Z,2608.00
2022-08-20T06:17:27.771Z,2644.00
2022-08-20T06:18:30.119Z,2688.00
2022-08-20T06:19:32.351Z,2748.00
2022-08-20T06:20:33.007Z,2804.00
2022-08-20T06:21:35.201Z,2860.00
2022-08-20T06:22:36.214Z,2920.00
2022-08-20T06:23:54.179Z,2984.00
2022-08-20T06:24:39.691Z,3044.00
2022-08-20T06:25:40.738Z,3116.00
2022-08-20T06:26:43.078Z,3184.00
2022-08-20T06:27:44.070Z,3248.00
2022-08-20T06:28:45.458Z,3308.00
2022-08-20T06:29:46.406Z,3352.00
2022-08-20T06:30:47.451Z,3400.00
2022-08-20T06:31:48.643Z,3452.00
2022-08-20T06:32:50.758Z,3496.00
2022-08-20T06:33:52.413Z,3540.00
2022-08-20T06:35:00.587Z,3564.00
2022-08-20T06:35:56.689Z,3584.00
2022-08-20T06:36:57.944Z,3600.00
2022-08-20T06:38:00.073Z,3588.00
2022-08-20T06:39:02.207Z,3568.00
2022-08-20T06:40:04.383Z,3544.00
2022-08-20T06:41:05.729Z,3516.00
2022-08-20T06:42:07.387Z,3476.00
2022-08-20T06:43:09.511Z,3444.00
2022-08-20T06:44:10.739Z,3448.00
2022-08-20T06:45:12.898Z,3452.00
2022-08-20T06:46:14.055Z,3448.00
2022-08-20T06:47:15.332Z,3440.00
2022-08-20T06:48:17.468Z,3432.00
2022-08-20T06:49:19.599Z,3428.00
2022-08-20T06:50:21.001Z,3436.00
2022-08-20T06:51:22.237Z,3456.00
2022-08-20T06:52:29.917Z,3500.00
2022-08-20T06:53:26.842Z,3540.00
2022-08-20T06:54:29.346Z,3576.00
2022-08-20T06:55:29.449Z,3588.00
2022-08-20T06:56:31.671Z,3580.00
2022-08-20T06:57:33.283Z,3536.00
2022-08-20T06:58:37.582Z,3504.00
2022-08-20T06:59:37.203Z,3484.00
2022-08-20T07:00:39.364Z,3476.00
2022-08-20T07:01:41.589Z,3484.00
2022-08-20T07:02:49.854Z,3520.00
2022-08-20T07:03:54.926Z,3548.00
2022-08-20T07:04:46.297Z,3584.00
2022-08-20T07:05:47.527Z,3620.00
2022-08-20T07:06:48.799Z,3624.00
2022-08-20T07:07:50.926Z,3620.00
2022-08-20T07:08:52.900Z,3640.00
2022-08-20T07:09:55.033Z,3664.00
2022-08-20T07:10:57.224Z,3716.00
2022-08-20T07:11:59.356Z,3776.00
2022-08-20T07:13:01.505Z,3848.00
2022-08-20T07:14:02.536Z,3952.00
2022-08-20T07:15:04.705Z,4084.00
2022-08-20T07:16:06.059Z,4248.00
2022-08-20T07:17:12.216Z,4412.00
2022-08-20T07:18:09.255Z,4588.00
2022-08-20T07:19:10.247Z,4768.00
2022-08-20T07:20:12.366Z,4956.00
2022-08-20T07:21:20.644Z,5108.00
2022-08-20T07:22:16.998Z,5208.00
2022-08-20T07:23:25.181Z,5288.00
2022-08-20T07:24:20.344Z,5344.00
2022-08-20T07:25:22.560Z,5392.00
2022-08-20T07:26:23.513Z,5388.00
2022-08-20T07:27:25.694Z,5316.00
2022-08-20T07:28:27.868Z,5212.00
2022-08-20T07:29:29.088Z,5108.00
2022-08-20T07:30:30.707Z,5016.00
2022-08-20T07:31:34.940Z,4924.00
2022-08-20T07:32:36.829Z,4876.00
2022-08-20T07:33:36.839Z,4868.00
2022-08-20T07:34:38.455Z,4876.00
2022-08-20T07:35:39.704Z,4880.00
2022-08-20T07:36:41.896Z,4880.00
2022-08-20T07:37:49.356Z,4868.00
2022-08-20T07:38:44.546Z,4852.00
2022-08-20T07:39:46.699Z,4812.00
2022-08-20T07:40:47.919Z,4772.00
2022-08-20T07:41:56.533Z,4720.00
2022-08-20T07:42:51.005Z,4632.00
2022-08-20T07:43:53.221Z,4576.00
2022-08-20T07:44:55.342Z,4528.00
2022-08-20T07:45:56.527Z,4468.00
2022-08-20T07:46:58.565Z,4380.00
2022-08-20T07:48:00.386Z,4256.00
2022-08-20T07:49:01.574Z,4112.00
2022-08-20T07:50:02.729Z,3972.00
2022-08-20T07:51:04.929Z,3844.00
2022-08-20T07:52:13.201Z,3752.00
2022-08-20T07:53:08.354Z,3700.00
2022-08-20T07:54:09.303Z,3684.00
2022-08-20T07:55:10.290Z,3704.00
2022-08-20T07:56:18.634Z,3752.00
2022-08-20T07:57:13.902Z,3820.00
2022-08-20T07:58:15.142Z,3880.00
2022-08-20T07:59:17.274Z,3912.00
2022-08-20T08:00:18.835Z,3948.00
2022-08-20T08:01:21.029Z,3980.00
2022-08-20T08:02:28.190Z,4012.00
2022-08-20T08:03:23.332Z,4032.00
2022-08-20T08:04:25.764Z,4032.00
2022-08-20T08:05:26.368Z,4020.00
2022-08-20T08:06:30.842Z,3992.00
2022-08-20T08:07:30.395Z,3980.00
2022-08-20T08:08:32.516Z,3980.00
2022-08-20T08:09:33.687Z,3984.00
2022-08-20T08:10:41.169Z,3976.00
2022-08-20T08:11:46.991Z,3948.00
2022-08-20T08:12:37.795Z,3912.00
2022-08-20T08:13:39.931Z,3868.00
2022-08-20T08:14:42.448Z,3824.00
2022-08-20T08:15:43.415Z,3772.00
2022-08-20T08:16:45.677Z,3732.00
2022-08-20T08:17:47.874Z,3696.00
2022-08-20T08:18:49.996Z,3660.00
2022-08-20T08:19:50.969Z,3648.00
2022-08-20T08:20:53.090Z,3668.00
2022-08-20T08:21:55.220Z,3712.00
2022-08-20T08:22:57.563Z,3768.00
2022-08-20T08:24:00.564Z,3816.00
2022-08-20T08:25:00.420Z,3852.00
2022-08-20T08:26:01.388Z,3868.00
2022-08-20T08:27:09.801Z,3888.00
2022-08-20T08:28:04.955Z,3928.00
2022-08-20T08:29:13.208Z,3976.00
2022-08-20T08:30:08.334Z,4024.00
2022-08-20T08:31:10.538Z,4100.00
2022-08-20T08:32:11.493Z,4128.00
2022-08-20T08:33:12.979Z,4156.00
2022-08-20T08:34:15.332Z,4196.00
2022-08-20T08:35:17.022Z,4240.00
2022-08-20T08:36:19.147Z,4296.00
2022-08-20T08:37:20.311Z,4344.00
2022-08-20T08:38:22.432Z,4388.00
2022-08-20T08:39:24.581Z,4440.00
2022-08-20T08:40:26.816Z,4516.00
2022-08-20T08:41:27.998Z,4620.00
2022-08-20T08:42:30.163Z,4740.00
2022-08-20T08:43:32.573Z,4820.00
2022-08-20T08:44:39.760Z,4848.00
2022-08-20T08:45:34.842Z,4840.00
2022-08-20T08:46:36.481Z,4852.00
2022-08-20T08:47:38.699Z,4888.00
2022-08-20T08:48:39.775Z,4956.00
2022-08-20T08:49:41.120Z,5024.00
2022-08-20T08:50:54.334Z,5036.00
2022-08-20T08:51:44.733Z,5040.00
2022-08-20T08:52:45.728Z,5052.00
2022-08-20T08:53:46.679Z,5080.00
2022-08-20T08:54:54.858Z,5092.00
2022-08-20T08:55:50.000Z,5084.00
2022-08-20T08:56:51.322Z,5068.00
2022-08-20T08:57:53.541Z,5084.00
2022-08-20T08:58:55.697Z,5112.00
2022-08-20T09:00:03.812Z,5160.00
2022-08-20T09:01:02.071Z,5232.00
2022-08-20T09:02:00.322Z,5296.00
2022-08-20T09:03:01.540Z,5368.00
2022-08-20T09:04:02.681Z,5452.00
2022-08-20T09:05:04.999Z,5552.00
2022-08-20T09:06:06.389Z,5672.00
2022-08-20T09:07:07.825Z,5788.00
2022-08-20T09:08:17.138Z,5880.00
2022-08-20T09:09:16.198Z,5968.00
2022-08-20T09:10:11.315Z,6072.00
2022-08-20T09:11:13.442Z,6188.00
2022-08-20T09:12:21.638Z,6324.00
2022-08-20T09:13:16.752Z,6448.00
2022-08-20T09:14:18.880Z,6572.00
2022-08-20T09:15:21.003Z,6680.00
2022-08-20T09:16:23.150Z,6804.00
2022-08-20T09:17:25.483Z,6956.00
2022-08-20T09:18:27.611Z,7132.00
2022-08-20T09:19:29.068Z,7316.00
2022-08-20T09:20:30.031Z,7420.00
2022-08-20T09:21:30.989Z,7460.00
2022-08-20T09:22:32.070Z,7484.00
2022-08-20T09:23:39.089Z,7468.00
2022-08-20T09:24:34.692Z,7544.00
2022-08-20T09:25:35.642Z,7796.00
2022-08-20T09:26:39.154Z,7836.00
2022-08-20T09:27:39.152Z,7396.00
2022-08-20T09:28:41.359Z,7084.00
2022-08-20T09:29:43.504Z,6736.00
2022-08-20T09:30:44.485Z,6584.00
2022-08-20T09:31:46.327Z,6516.00
2022-08-20T09:32:47.653Z,5972.00
2022-08-20T09:33:49.781Z,5684.00
2022-08-20T09:34:52.000Z,5644.00
2022-08-20T09:35:53.599Z,5712.00
2022-08-20T09:36:55.719Z,5712.00
2022-08-20T09:37:58.173Z,5604.00
2022-08-20T09:38:59.217Z,5688.00
2022-08-20T09:40:00.468Z,5348.00
2022-08-20T09:41:01.584Z,5372.00
2022-08-20T09:42:03.706Z,5712.00
2022-08-20T09:43:11.867Z,6416.00
2022-08-20T09:44:07.200Z,6932.00
2022-08-20T09:45:11.208Z,7196.00
2022-08-20T09:46:10.268Z,7284.00
2022-08-20T09:47:11.248Z,7244.00
2022-08-20T09:48:13.373Z,7316.00
2022-08-20T09:49:14.975Z,7320.00
2022-08-20T09:50:17.161Z,7348.00
2022-08-20T09:51:19.396Z,7328.00
2022-08-20T09:52:20.306Z,7268.00
2022-08-20T09:53:22.170Z,7272.00
2022-08-20T09:54:23.158Z,7264.00
2022-08-20T09:55:25.329Z,7244.00
2022-08-20T09:56:27.445Z,7204.00
2022-08-20T09:57:29.616Z,7156.00
2022-08-20T09:58:32.010Z,7084.00
2022-08-20T09:59:32.968Z,7000.00
2022-08-20T10:00:41.349Z,6904.00
2022-08-20T10:01:36.480Z,6792.00
2022-08-20T10:02:37.697Z,6668.00
2022-08-20T10:03:41.814Z,6540.00
2022-08-20T10:04:41.850Z,6428.00
2022-08-20T10:05:43.480Z,6324.00
2022-08-20T10:06:45.617Z,6232.00
2022-08-20T10:07:47.763Z,6164.00
2022-08-20T10:08:49.069Z,6108.00
2022-08-20T10:09:51.235Z,6060.00
2022-08-20T10:10:52.868Z,6020.00
2022-08-20T10:11:53.824Z,5988.00
2022-08-20T10:12:55.232Z,5936.00
2022-08-20T10:13:56.246Z,5888.00
2022-08-20T10:14:57.439Z,5832.00
2022-08-20T10:15:59.770Z,5776.00
2022-08-20T10:17:00.799Z,5712.00
2022-08-20T10:18:02.008Z,5636.00
2022-08-20T10:19:04.138Z,5568.00
2022-08-20T10:20:06.258Z,5520.00
2022-08-20T10:21:07.969Z,5476.00
2022-08-20T10:22:10.157Z,5424.00
2022-08-20T10:23:11.328Z,5380.00
2022-08-20T10:24:12.687Z,5348.00
2022-08-20T10:25:14.909Z,5328.00
2022-08-20T10:26:16.258Z,5312.00
2022-08-20T10:27:18.387Z,5304.00
2022-08-20T10:28:20.514Z,5304.00
2022-08-20T10:29:22.632Z,5304.00
2022-08-20T10:31:25.598Z,5328.00
2022-08-20T10:32:26.838Z,5340.00
2022-08-20T10:33:27.793Z,5368.00
2022-08-20T10:34:28.780Z,5392.00
2022-08-20T10:35:36.322Z,5416.00
2022-08-20T10:36:31.513Z,5444.00
2022-08-20T10:37:32.697Z,5484.00
2022-08-20T10:38:34.672Z,5524.00
2022-08-20T10:39:37.030Z,5568.00
2022-08-20T10:40:38.089Z,5620.00
2022-08-20T10:41:40.218Z,5660.00
2022-08-20T10:42:42.783Z,5724.00
2022-08-20T10:43:42.972Z,5804.00
2022-08-20T10:44:44.329Z,5896.00
2022-08-20T10:45:45.501Z,5988.00
2022-08-20T10:46:47.639Z,6100.00
2022-08-20T10:47:49.844Z,6236.00
2022-08-20T10:48:51.968Z,6384.00
2022-08-20T10:49:54.151Z,6548.00
2022-08-20T10:51:56.874Z,6912.00
2022-08-20T10:52:58.525Z,7088.00
2022-08-20T10:54:00.653Z,7260.00
2022-08-20T10:55:01.827Z,7424.00
2022-08-20T10:56:15.019Z,7584.00
2022-08-20T10:57:05.698Z,7752.00
2022-08-20T10:58:07.862Z,7940.00
2022-08-20T10:59:10.348Z,8144.00
2022-08-20T11:00:17.373Z,8336.00
2022-08-20T11:01:12.541Z,8524.00
2022-08-20T11:02:14.776Z,8684.00
2022-08-20T11:03:14.877Z,8832.00
2022-08-20T11:04:17.011Z,8960.00
2022-08-20T11:05:18.207Z,9060.00
2022-08-20T11:06:19.217Z,9148.00
2022-08-20T11:07:21.429Z,9252.00
2022-08-20T11:08:34.474Z,9352.00
2022-08-20T11:09:24.744Z,9456.00
2022-08-20T11:10:25.743Z,9544.00
2022-08-20T11:11:27.234Z,9632.00
2022-08-20T11:12:28.186Z,9688.00
2022-08-20T11:13:29.828Z,9716.00
2022-08-20T11:14:32.164Z,9740.00
2022-08-20T11:15:33.150Z,9760.00
2022-08-20T11:16:35.275Z,9796.00
2022-08-20T11:17:37.389Z,9828.00
2022-08-20T11:18:41.767Z,9860.00
2022-08-20T11:19:41.367Z,9916.00
2022-08-20T11:20:43.532Z,9996.00
2022-08-20T11:21:44.909Z,10072.00
2022-08-20T11:22:47.029Z,10104.00
2022-08-20T11:23:49.179Z,10116.00
2022-08-20T11:24:51.392Z,10120.00
2022-08-20T11:25:52.572Z,10096.00
2022-08-20T11:26:54.690Z,10072.00
2022-08-20T11:27:57.061Z,10036.00
2022-08-20T11:28:58.226Z,9980.00
2022-08-20T11:29:59.422Z,9948.00
2022-08-20T11:31:01.595Z,9968.00
2022-08-20T11:32:03.744Z,10044.00
2022-08-20T11:33:05.982Z,10124.00
2022-08-20T11:34:12.097Z,10192.00
2022-08-20T11:35:24.937Z,10252.00
2022-08-20T11:36:10.639Z,10260.00
2022-08-20T11:37:11.593Z,10180.00
2022-08-20T11:38:12.991Z,10216.00
2022-08-20T11:39:15.118Z,10448.00
2022-08-20T11:40:17.282Z,10516.00
2022-08-20T11:41:18.501Z,10444.00
2022-08-20T11:42:20.824Z,10560.00
2022-08-20T11:43:22.021Z,10764.00
2022-08-20T11:44:22.988Z,10876.00
2022-08-20T11:45:25.106Z,10844.00
2022-08-20T11:46:32.205Z,10900.00
2022-08-20T11:47:27.319Z,11052.00
2022-08-20T11:48:29.438Z,11048.00
2022-08-20T11:49:37.126Z,10912.00
2022-08-20T11:50:32.325Z,10808.00
2022-08-20T11:51:33.606Z,10760.00
2022-08-20T11:52:35.872Z,10588.00
2022-08-20T11:53:36.820Z,10312.00
2022-08-20T11:54:38.805Z,10488.00
2022-08-20T11:55:40.188Z,10624.00
2022-08-20T11:56:42.673Z,10688.00
2022-08-20T11:57:43.517Z,10912.00
2022-08-20T11:58:44.472Z,11060.00
2022-08-20T11:59:45.648Z,11200.00
2022-08-20T12:00:47.124Z,11876.00
2022-08-20T12:02:03.138Z,12352.00
2022-08-20T12:02:50.694Z,12812.00
2022-08-20T12:03:51.051Z,13200.00
2022-08-20T12:04:53.168Z,13252.00
2022-08-20T12:05:55.555Z,13620.00
2022-08-20T12:06:56.855Z,13704.00
2022-08-20T12:07:58.249Z,13540.00
2022-08-20T12:09:00.432Z,13692.00
2022-08-20T12:10:01.471Z,13568.00
2022-08-20T12:11:02.507Z,13316.00
2022-08-20T12:12:04.712Z,12852.00
2022-08-20T12:13:13.142Z,12472.00
2022-08-20T12:14:08.383Z,12096.00
2022-08-20T12:15:09.647Z,11732.00
2022-08-20T12:16:11.805Z,11416.00
2022-08-20T12:17:13.933Z,11204.00
2022-08-20T12:18:16.093Z,11048.00
2022-08-20T12:19:18.175Z,10948.00
2022-08-20T12:20:19.284Z,10912.00
2022-08-20T12:21:21.423Z,10912.00
2022-08-20T12:22:25.280Z,10884.00
2022-08-20T12:23:24.137Z,10828.00
2022-08-20T12:24:25.300Z,10768.00
2022-08-20T12:25:33.772Z,10664.00
2022-08-20T12:26:28.897Z,10504.00
2022-08-20T12:27:37.193Z,10320.00
2022-08-20T12:28:32.302Z,10240.00
2022-08-20T12:29:40.842Z,10240.00
2022-08-20T12:30:36.171Z,10204.00
2022-08-20T12:31:44.352Z,10232.00
2022-08-20T12:32:39.472Z,10288.00
2022-08-20T12:33:41.592Z,10516.00
2022-08-20T12:34:43.961Z,10844.00
2022-08-20T12:35:45.132Z,10992.00
2022-08-20T12:36:46.094Z,10852.00
2022-08-20T12:37:48.443Z,10396.00
2022-08-20T12:38:50.628Z,10016.00
2022-08-20T12:39:51.913Z,9872.00
2022-08-20T12:40:54.152Z,10120.00
2022-08-20T12:41:55.410Z,10640.00
2022-08-20T12:42:57.726Z,11112.00
2022-08-20T12:43:59.084Z,11400.00
2022-08-20T12:46:02.998Z,11544.00
2022-08-20T12:47:05.206Z,11588.00
2022-08-20T12:48:06.163Z,11864.00
2022-08-20T12:49:08.280Z,12516.00
2022-08-20T12:50:11.044Z,13300.00
2022-08-20T12:51:11.992Z,12940.00
2022-08-20T12:52:14.124Z,12664.00
2022-08-20T12:53:16.259Z,12756.00
2022-08-20T12:54:18.346Z,12512.00
2022-08-20T12:55:20.494Z,12552.00
2022-08-20T12:56:28.194Z,12720.00
2022-08-20T12:57:23.536Z,13456.00
2022-08-20T12:58:25.660Z,13960.00
2022-08-20T13:00:28.561Z,14320.00
2022-08-20T13:01:29.911Z,13988.00
2022-08-20T13:02:30.921Z,13656.00
2022-08-20T13:03:33.045Z,13056.00
2022-08-20T13:04:35.300Z,12440.00
2022-08-20T13:05:36.478Z,11948.00
2022-08-20T13:06:37.449Z,11572.00
2022-08-20T13:07:38.406Z,11244.00
2022-08-20T13:08:40.596Z,11020.00
2022-08-20T13:09:41.856Z,10968.00
2022-08-20T13:10:42.815Z,11004.00
2022-08-20T13:11:43.774Z,11076.00
2022-08-20T13:12:44.745Z,11144.00
2022-08-20T13:13:45.696Z,11180.00
2022-08-20T13:14:46.711Z,11212.00
2022-08-20T13:15:55.108Z,11288.00
2022-08-20T13:16:50.221Z,11372.00
2022-08-20T13:17:51.992Z,11424.00
2022-08-20T13:18:54.112Z,11432.00
2022-08-20T13:19:55.286Z,11348.00
2022-08-20T13:20:56.451Z,11220.00
2022-08-20T13:21:57.575Z,11084.00
2022-08-20T13:22:59.695Z,10904.00
2022-08-20T13:24:00.669Z,10672.00
2022-08-20T13:25:01.714Z,10364.00
2022-08-20T13:26:03.843Z,9964.00
2022-08-20T13:27:05.963Z,9544.00
2022-08-20T13:28:08.095Z,9192.00
2022-08-20T13:29:10.217Z,8900.00
2022-08-20T13:30:12.606Z,8684.00
2022-08-20T13:31:13.531Z,8528.00
2022-08-20T13:32:15.738Z,8408.00
2022-08-20T13:33:17.858Z,8332.00
2022-08-20T13:34:20.011Z,8276.00
2022-08-20T13:35:20.990Z,8216.00
2022-08-20T13:36:23.132Z,8148.00
2022-08-20T13:37:25.897Z,8072.00
2022-08-20T13:38:26.987Z,7980.00
2022-08-20T13:39:29.410Z,7876.00
2022-08-20T13:40:30.458Z,7756.00
2022-08-20T13:41:32.541Z,7620.00
2022-08-20T13:42:34.663Z,7472.00
2022-08-20T13:43:35.928Z,7328.00
2022-08-20T13:44:38.116Z,7188.00
2022-08-20T13:45:40.327Z,7052.00
2022-08-20T13:46:41.511Z,6916.00
2022-08-20T13:47:42.467Z,6780.00
2022-08-20T13:48:44.687Z,6644.00
2022-08-20T13:49:45.641Z,6508.00
2022-08-20T13:50:47.770Z,6404.00
2022-08-20T13:51:48.941Z,6312.00
2022-08-20T13:52:51.168Z,6232.00
2022-08-20T13:53:52.364Z,6156.00
2022-08-20T13:54:54.640Z,6096.00
2022-08-20T13:55:55.832Z,6040.00
2022-08-20T13:56:57.004Z,5988.00
2022-08-20T13:57:59.129Z,5956.00
2022-08-20T13:59:01.255Z,5928.00
2022-08-20T14:00:03.488Z,5908.00
2022-08-20T14:01:04.736Z,5888.00
2022-08-20T14:02:07.446Z,5872.00
2022-08-20T14:03:07.358Z,5848.00
2022-08-20T14:04:08.687Z,5820.00
2022-08-20T14:05:09.845Z,5788.00
2022-08-20T14:06:11.452Z,5760.00
2022-08-20T14:07:12.445Z,5736.00
2022-08-20T14:08:14.568Z,5720.00
2022-08-20T14:09:16.699Z,5704.00
2022-08-20T14:10:18.855Z,5712.00
2022-08-20T14:11:20.041Z,5728.00
2022-08-20T14:12:21.254Z,5764.00
2022-08-20T14:13:22.441Z,5788.00
2022-08-20T14:14:24.625Z,5788.00
2022-08-20T14:15:26.745Z,5772.00
2022-08-20T14:16:32.184Z,5732.00
2022-08-20T14:17:31.121Z,5732.00
2022-08-20T14:18:31.312Z,5792.00
2022-08-20T14:19:33.400Z,5844.00
2022-08-20T14:20:34.626Z,5840.00
2022-08-20T14:21:36.247Z,5844.00
2022-08-20T14:22:38.647Z,5792.00
2022-08-20T14:23:39.826Z,5660.00
2022-08-20T14:24:41.914Z,5476.00
2022-08-20T14:25:49.181Z,5352.00
2022-08-20T14:26:44.376Z,5252.00
2022-08-20T14:27:46.530Z,5204.00
2022-08-20T14:28:48.659Z,5224.00
2022-08-20T14:29:50.871Z,5228.00
2022-08-20T14:30:53.809Z,5168.00
2022-08-20T14:31:54.868Z,5032.00
2022-08-20T14:32:57.489Z,4864.00
2022-08-20T14:33:58.793Z,4704.00
2022-08-20T14:35:00.950Z,4576.00
2022-08-20T14:36:02.146Z,4516.00
2022-08-20T14:37:04.531Z,4536.00
2022-08-20T14:38:05.480Z,4600.00
2022-08-20T14:39:06.597Z,4800.00
2022-08-20T14:40:08.130Z,5064.00
2022-08-20T14:41:10.368Z,5260.00
2022-08-20T14:42:12.751Z,5468.00
2022-08-20T14:43:13.723Z,5688.00
2022-08-20T14:44:15.848Z,5856.00
2022-08-20T14:45:17.033Z,5948.00
2022-08-20T14:46:19.157Z,5996.00
2022-08-20T14:47:21.448Z,6032.00
2022-08-20T14:48:22.601Z,6024.00
2022-08-20T14:49:23.873Z,5908.00
2022-08-20T14:50:25.972Z,5768.00
2022-08-20T14:51:28.104Z,5660.00
2022-08-20T14:52:36.576Z,5556.00
2022-08-20T14:53:40.491Z,5428.00
2022-08-20T14:54:33.843Z,5296.00
2022-08-20T14:55:35.951Z,5164.00
2022-08-20T14:56:38.086Z,5024.00
2022-08-20T14:57:45.755Z,4884.00
2022-08-20T14:58:40.883Z,4668.00
2022-08-20T14:59:43.205Z,4404.00
2022-08-20T15:00:44.458Z,4144.00
2022-08-20T15:01:46.621Z,3912.00
2022-08-20T15:02:48.753Z,3756.00
2022-08-20T15:03:51.119Z,3744.00
2022-08-20T15:04:54.444Z,3836.00
2022-08-20T15:05:54.278Z,3964.00
2022-08-20T15:06:56.512Z,4108.00
2022-08-20T15:07:57.652Z,4236.00
2022-08-20T15:08:59.132Z,4344.00
2022-08-20T15:10:00.109Z,4388.00
2022-08-20T15:11:01.069Z,4372.00
2022-08-20T15:12:02.258Z,4328.00
2022-08-20T15:13:03.423Z,4264.00
2022-08-20T15:14:04.663Z,4176.00
2022-08-20T15:15:15.256Z,4036.00
2022-08-20T15:16:09.330Z,3836.00
2022-08-20T15:18:17.830Z,3392.00
2022-08-20T15:19:13.233Z,3220.00
2022-08-20T15:20:20.444Z,3108.00
2022-08-20T15:21:20.145Z,3056.00
2022-08-20T15:22:16.826Z,3048.00
2022-08-20T15:23:18.501Z,3044.00
2022-08-20T15:24:20.660Z,3048.00
2022-08-20T15:25:22.786Z,3056.00
2022-08-20T15:26:25.061Z,3044.00
2022-08-20T15:27:27.193Z,3020.00
2022-08-20T15:28:28.587Z,2980.00
2022-08-20T15:29:30.817Z,2908.00
2022-08-20T15:30:31.996Z,2804.00
2022-08-20T15:31:33.673Z,2688.00
2022-08-20T15:32:36.006Z,2588.00
2022-08-20T15:33:37.624Z,2524.00
2022-08-20T15:34:39.768Z,2472.00
2022-08-20T15:35:41.949Z,2408.00
2022-08-20T15:36:43.070Z,2372.00
2022-08-20T15:37:50.056Z,2364.00
2022-08-20T15:38:45.270Z,2376.00
2022-08-20T15:39:47.492Z,2368.00
2022-08-20T15:40:49.654Z,2348.00
2022-08-20T15:41:51.772Z,2320.00
2022-08-20T15:42:53.047Z,2324.00
2022-08-20T15:44:00.380Z,2384.00
2022-08-20T15:44:55.700Z,2492.00
2022-08-20T15:45:58.030Z,2644.00
2022-08-20T15:47:05.049Z,2776.00
2022-08-20T15:48:00.261Z,2852.00
2022-08-20T15:49:02.392Z,2824.00
2022-08-20T15:50:03.818Z,2756.00
2022-08-20T15:51:05.068Z,2748.00
2022-08-20T15:52:06.053Z,2720.00
2022-08-20T15:53:14.267Z,2520.00
2022-08-20T15:54:09.601Z,2340.00
2022-08-20T15:55:10.555Z,2224.00
2022-08-20T15:56:12.680Z,2224.00
2022-08-20T15:57:13.842Z,2152.00
2022-08-20T15:58:15.002Z,2012.00
2022-08-20T15:59:17.123Z,1880.00
2022-08-20T16:00:19.243Z,1804.00
2022-08-20T16:01:24.270Z,1728.00
2022-08-20T16:02:25.817Z,1544.00
2022-08-20T16:03:24.668Z,1424.00
2022-08-20T16:04:26.786Z,1188.00
2022-08-20T16:05:27.982Z,1000.00
2022-08-20T16:06:28.933Z,968.00
2022-08-20T16:07:31.278Z,1064.00
2022-08-20T16:08:33.496Z,1180.00
2022-08-20T16:09:34.473Z,1152.00
2022-08-20T16:10:36.594Z,932.00
2022-08-20T16:11:37.854Z,768.00
2022-08-20T16:12:44.836Z,636.00
2022-08-20T16:13:41.122Z,480.00
2022-08-20T16:14:43.273Z,360.00
2022-08-20T16:15:49.397Z,304.00
2022-08-20T16:17:48.963Z,448.00
2022-08-20T16:18:49.929Z,556.00
2022-08-20T16:19:52.105Z,752.00
2022-08-20T16:20:53.763Z,924.00
2022-08-20T16:21:57.911Z,1072.00
2022-08-20T16:22:57.992Z,1172.00
2022-08-20T16:23:59.256Z,1256.00
2022-08-20T16:25:00.408Z,1296.00
2022-08-20T16:26:02.045Z,1324.00
2022-08-20T16:27:04.374Z,1376.00
2022-08-20T16:28:06.494Z,1400.00
2022-08-20T16:29:14.482Z,1380.00
2022-08-20T16:30:09.616Z,1376.00
2022-08-20T16:31:13.848Z,1380.00
2022-08-20T16:32:13.936Z,1392.00
2022-08-20T16:33:15.121Z,1416.00
2022-08-20T16:34:33.846Z,1436.00
2022-08-20T16:35:18.625Z,1448.00
2022-08-20T16:36:19.805Z,1440.00
2022-08-20T16:37:21.051Z,1420.00
2022-08-20T16:38:22.204Z,1392.00
2022-08-20T16:39:24.526Z,1348.00
2022-08-20T16:40:25.686Z,1304.00
2022-08-20T16:41:26.646Z,1264.00
2022-08-20T16:42:28.766Z,1228.00
2022-08-20T16:43:30.077Z,1204.00
2022-08-20T16:44:31.034Z,1192.00
2022-08-20T16:45:31.992Z,1172.00
2022-08-20T16:46:37.391Z,1128.00
2022-08-20T16:47:34.209Z,1080.00
2022-08-20T16:48:41.730Z,1032.00
2022-08-20T16:49:42.967Z,1012.00
2022-08-20T16:50:38.965Z,1020.00
2022-08-20T16:51:40.170Z,1032.00
2022-08-20T16:52:41.392Z,1048.00